AGROMETEOROLOŠKI PORTAL

Vinorodna pokrajina

Temelj dobrega kmetovanja.

Pregled podatkov za lokacijo Jablje, meteorološka postaja 517695

Pregled senzorjev na lokaciji

ID Ime Zadnja
vrednost
Datum in čas
meritve
(lokalni čas)
Tip
senzorja
7428 Sončno sevanje (W/m2) 0 W/m2 24.2.2024 00:30 Pyranometer SP-Lite
7427 Omočenost lista (1,5 m) (U) 9 U 24.2.2024 00:30 A730WET
7434 Omočenost lista (20 cm) (U) 5 U 24.2.2024 00:30 A730WET
7435 Padavine (mm) 0 mm 24.2.2024 00:30 Generic 0.2 mm
7433 Relativna zračna vlaga (20 cm) (%RH) 100 %RH 24.2.2024 00:30 50YA
7426 Relativna zračna vlaga (2 m) (%RH) 100 %RH 24.2.2024 00:30 50YA
7429 Temperatura tal (5 cm) (°C) 15,6 °C 24.2.2024 00:30 ST2
7425 Temperatura (2 m) (°C) 7,1 °C 24.2.2024 00:30 50YA
7432 Temperatura (20 cm) (°C) 7 °C 24.2.2024 00:30 50YA
7431 Smer vetra (3 m) (°) 262 ° 24.2.2024 00:30 Generic 0 - 360
7430 Hitrost vetra (3 m) (km/h) 0 km/h 24.2.2024 00:30 Pro10/2 270 km/h

Pregled podatkov zadnjih 24 ur

Zap.
št.
Datum in čas
(lokalni čas)
Jablje
Sončno
sevanje
Omočenost
lista
(1,5
m)
Omočenost
lista
(20
cm)
Padavine Relativna
zračna
vlaga
(20
cm)
Relativna
zračna
vlaga
(2
m)
Temperatura
tal
(5
cm)
Temperatura
(2
m)
Temperatura
(20
cm)
Smer
vetra
(3
m)
Hitrost
vetra
(3
m)
1 24.2.2024 00:30 0,2 9 5 0 100 100 15,6 7,1 7 261,8 0
2 24.2.2024 00:00 0,2 9 5 0 100 100 15,7 7,2 6,9 215,6 0,5
3 23.2.2024 23:30 0,2 8 5 0 100 100 15,8 7,3 7 202,9 2,3
4 23.2.2024 23:00 0,2 7 3 0 99,9 99,9 15,9 7,4 7,2 258,3 2,7
5 23.2.2024 22:30 0,2 4 3 0,6 99,7 99,5 16,1 7,7 7,5 107,5 3
6 23.2.2024 22:00 0,2 3 3 1,2 99,6 99,2 16,2 8 7,8 155,2 4,2
7 23.2.2024 21:30 0,2 2 2 4 98,9 97 16,2 8,5 8,4 254,5 7,3
8 23.2.2024 21:00 0,2 4 4 5,8 96,3 94 16 9,4 9,1 232,7 4,6
9 23.2.2024 20:30 0,2 8 8 1,2 82,8 77,6 16 11,1 10,4 240,7 7,5
10 23.2.2024 20:00 0,2 7 8 0,2 73,3 65,7 15,9 12,5 11,6 159,6 15,7
11 23.2.2024 19:30 0,2 0 0 0 71,7 64,8 15,8 12,7 11,8 160,4 20,1
12 23.2.2024 19:00 0,2 0 0 0 72,5 65,5 15,6 12,5 11,6 165,4 17
13 23.2.2024 18:30 0,2 0 0 0 73,5 66,5 15,5 12,2 11,3 158,5 18,1
14 23.2.2024 18:00 0,4 0 0 0 74,6 66,9 15,3 12,1 11,2 157,9 17,2
15 23.2.2024 17:30 1,6 9 9 0 97,5 93,3 15,2 8,4 7,9 244,7 6,7
16 23.2.2024 17:00 3,1 10 9 0 99,9 98,5 15,2 7,6 7,4 283,6 3,3
17 23.2.2024 16:30 5,6 9 9 0 99,4 97,8 15,2 7,6 7,5 282,9 3,4
18 23.2.2024 16:00 7,2 10 9 0,2 98,5 95,6 15,2 7,7 7,5 220,1 3,9
19 23.2.2024 15:30 9,9 10 10 0,2 97,9 94 15,2 7,8 7,5 192,3 2,4
20 23.2.2024 15:00 12,6 10 9 0 98,1 95,8 15,2 7,6 7,4 255,3 1,9
21 23.2.2024 14:30 16,1 10 9 0,2 97,9 94,1 15,1 7,7 7,4 243,8 3,4
22 23.2.2024 14:00 17,2 10 10 0,6 98,1 95,4 15,1 7,5 7,4 283,8 3,6
23 23.2.2024 13:30 14,1 10 10 0,2 97,6 94,8 15,1 7,6 7,4 278,5 3,9
24 23.2.2024 13:00 9,8 10 10 0,2 97,5 94,4 15 7,6 7,4 298,5 4,2
25 23.2.2024 12:30 15 10 10 1 98,2 94,9 15 7,6 7,4 276,3 4,7
26 23.2.2024 12:00 16,7 10 10 1 99,1 96,3 14,9 7,4 7,2 307,2 5,5
27 23.2.2024 11:30 14,8 10 10 0,8 99,7 97,6 14,9 7,1 7 303,5 3,5
28 23.2.2024 11:00 14,4 10 10 0 99,6 97,7 14,9 7 7 159,2 1,2
29 23.2.2024 10:30 25,1 10 10 0,2 99,4 97 14,8 7,1 7 245,6 1,1
30 23.2.2024 10:00 34,4 10 10 0,2 99,8 96,9 14,7 7 6,9 224,4 2,1
31 23.2.2024 09:30 15,1 10 10 0,4 99,9 97,7 14,6 6,7 6,6 181,2 1,9
32 23.2.2024 09:00 6,1 10 10 0 99,7 97,2 14,6 6,7 6,5 222,1 1,9
33 23.2.2024 08:30 9,1 10 9 0 99,7 98,1 14,6 6,6 6,4 132,3 1,2
34 23.2.2024 08:00 4,1 10 9 0 99,3 97,3 14,6 6,7 6,4 241,6 1,1
35 23.2.2024 07:30 1 10 9 0,2 98,3 95,9 14,6 6,8 6,5 133,4 1
36 23.2.2024 07:00 0,4 9 9 0 95,8 93,1 14,6 7,2 6,9 207,9 2,5
37 23.2.2024 06:30 0,2 9 8 0,4 97,2 91,9 14,6 7,5 7,1 264 3,4
38 23.2.2024 06:00 0,2 10 8 0,4 99,3 97,5 14,6 6,8 6,6 254,6 1,7
39 23.2.2024 05:30 0,2 9 9 0,4 98,4 97 14,7 6,7 6,6 274 1,7
40 23.2.2024 05:00 0,2 9 9 0,2 96,3 92,8 14,7 7,1 6,8 263,4 1,3
41 23.2.2024 04:30 0,2 9 8 0 94 90,1 14,7 7,4 7,1 280,2 2,6
42 23.2.2024 04:00 0,2 9 8 0,2 92,8 88,4 14,7 7,7 7,2 295,8 1,8
43 23.2.2024 03:30 0,2 9 8 0,2 92,2 88,4 14,7 7,7 7,4 245,1 3,9
44 23.2.2024 03:00 0,2 9 9 0,2 94,2 89,5 14,7 7,5 7,1 248,4 2
45 23.2.2024 02:30 0,2 10 10 0,2 93,2 88,8 14,8 7,5 7 241,7 2,2
46 23.2.2024 02:00 0,2 10 10 0 88,5 84,4 14,8 8 7,6 241,2 3,7
47 23.2.2024 01:30 0,2 2 5 0 86,7 82,4 14,8 8,2 7,8 239,4 4,4
48 23.2.2024 01:00 0,2 0 3 0 86,3 82,1 14,8 8,4 8 223 7,2